sensor_id;sensor_type;location;lat;lon;timestamp;P1;durP1;ratioP1;P2;durP2;ratioP2
37877;SDS011;23715;53.652;8.516;2022-09-21T00:00:18;13.30;;;12.35;;
37877;SDS011;23715;53.652;8.516;2022-09-21T00:05:18;13.30;;;12.35;;
37877;SDS011;23715;53.652;8.516;2022-09-21T00:10:19;13.05;;;12.25;;
37877;SDS011;23715;53.652;8.516;2022-09-21T00:15:20;13.00;;;11.90;;
37877;SDS011;23715;53.652;8.516;2022-09-21T00:20:21;13.45;;;12.53;;
37877;SDS011;23715;53.652;8.516;2022-09-21T00:25:22;12.43;;;11.53;;
37877;SDS011;23715;53.652;8.516;2022-09-21T00:30:22;13.25;;;12.55;;
37877;SDS011;23715;53.652;8.516;2022-09-21T00:35:23;13.60;;;12.80;;
37877;SDS011;23715;53.652;8.516;2022-09-21T00:40:23;12.93;;;12.13;;
37877;SDS011;23715;53.652;8.516;2022-09-21T00:45:23;14.53;;;13.35;;
37877;SDS011;23715;53.652;8.516;2022-09-21T00:50:24;14.45;;;13.18;;
37877;SDS011;23715;53.652;8.516;2022-09-21T00:55:27;13.88;;;13.00;;
37877;SDS011;23715;53.652;8.516;2022-09-21T01:00:28;13.45;;;12.45;;
37877;SDS011;23715;53.652;8.516;2022-09-21T01:05:29;13.27;;;12.43;;
37877;SDS011;23715;53.652;8.516;2022-09-21T01:10:31;13.18;;;12.47;;
37877;SDS011;23715;53.652;8.516;2022-09-21T01:15:38;14.00;;;12.98;;
37877;SDS011;23715;53.652;8.516;2022-09-21T01:31:40;14.70;;;13.80;;
37877;SDS011;23715;53.652;8.516;2022-09-21T01:36:43;13.75;;;12.33;;
37877;SDS011;23715;53.652;8.516;2022-09-21T01:41:47;12.93;;;12.13;;
37877;SDS011;23715;53.652;8.516;2022-09-21T01:46:49;13.33;;;12.63;;
37877;SDS011;23715;53.652;8.516;2022-09-21T01:51:52;13.28;;;12.47;;
37877;SDS011;23715;53.652;8.516;2022-09-21T01:57:00;14.13;;;13.22;;
37877;SDS011;23715;53.652;8.516;2022-09-21T02:02:08;13.40;;;12.70;;
37877;SDS011;23715;53.652;8.516;2022-09-21T02:07:04;14.07;;;13.22;;
37877;SDS011;23715;53.652;8.516;2022-09-21T02:12:05;14.63;;;13.35;;
37877;SDS011;23715;53.652;8.516;2022-09-21T02:17:15;14.63;;;13.62;;
37877;SDS011;23715;53.652;8.516;2022-09-21T02:22:19;15.83;;;14.70;;
37877;SDS011;23715;53.652;8.516;2022-09-21T02:37:56;16.37;;;15.35;;
37877;SDS011;23715;53.652;8.516;2022-09-21T02:43:08;16.82;;;15.50;;
37877;SDS011;23715;53.652;8.516;2022-09-21T02:48:17;16.40;;;15.30;;
37877;SDS011;23715;53.652;8.516;2022-09-21T02:53:24;16.20;;;15.10;;
37877;SDS011;23715;53.652;8.516;2022-09-21T02:58:25;17.42;;;16.35;;
37877;SDS011;23715;53.652;8.516;2022-09-21T03:03:26;15.95;;;15.08;;
37877;SDS011;23715;53.652;8.516;2022-09-21T03:08:27;16.57;;;15.23;;
37877;SDS011;23715;53.652;8.516;2022-09-21T03:13:28;14.78;;;13.88;;
37877;SDS011;23715;53.652;8.516;2022-09-21T03:18:29;16.97;;;15.78;;
37877;SDS011;23715;53.652;8.516;2022-09-21T03:23:29;16.27;;;15.38;;
37877;SDS011;23715;53.652;8.516;2022-09-21T03:28:30;17.42;;;15.93;;
37877;SDS011;23715;53.652;8.516;2022-09-21T03:38:30;15.50;;;14.60;;
37877;SDS011;23715;53.652;8.516;2022-09-21T03:48:30;16.55;;;15.40;;
37877;SDS011;23715;53.652;8.516;2022-09-21T03:53:30;15.63;;;14.55;;
37877;SDS011;23715;53.652;8.516;2022-09-21T03:58:30;16.93;;;15.68;;
37877;SDS011;23715;53.652;8.516;2022-09-21T04:03:31;18.07;;;16.37;;
37877;SDS011;23715;53.652;8.516;2022-09-21T04:13:31;16.50;;;15.30;;
37877;SDS011;23715;53.652;8.516;2022-09-21T04:18:32;17.52;;;16.15;;
37877;SDS011;23715;53.652;8.516;2022-09-21T04:23:33;18.10;;;16.65;;
37877;SDS011;23715;53.652;8.516;2022-09-21T04:28:33;20.30;;;18.70;;
37877;SDS011;23715;53.652;8.516;2022-09-21T04:33:33;19.20;;;17.77;;
37877;SDS011;23715;53.652;8.516;2022-09-21T04:38:34;19.20;;;17.82;;
37877;SDS011;23715;53.652;8.516;2022-09-21T04:43:34;20.97;;;19.67;;
37877;SDS011;23715;53.652;8.516;2022-09-21T04:48:34;22.82;;;21.25;;
37877;SDS011;23715;53.652;8.516;2022-09-21T04:53:36;20.68;;;19.37;;
37877;SDS011;23715;53.652;8.516;2022-09-21T04:58:44;22.00;;;20.70;;
37877;SDS011;23715;53.652;8.516;2022-09-21T05:03:40;22.65;;;21.23;;
37877;SDS011;23715;53.652;8.516;2022-09-21T05:08:40;22.45;;;20.77;;
37877;SDS011;23715;53.652;8.516;2022-09-21T05:13:59;21.57;;;20.17;;
37877;SDS011;23715;53.652;8.516;2022-09-21T05:23:59;20.48;;;19.27;;
37877;SDS011;23715;53.652;8.516;2022-09-21T05:29:00;20.88;;;19.62;;
37877;SDS011;23715;53.652;8.516;2022-09-21T05:34:20;21.50;;;20.20;;
37877;SDS011;23715;53.652;8.516;2022-09-21T05:39:36;20.00;;;18.70;;
37877;SDS011;23715;53.652;8.516;2022-09-21T05:55:06;21.10;;;19.70;;
37877;SDS011;23715;53.652;8.516;2022-09-21T06:00:12;20.23;;;18.92;;
37877;SDS011;23715;53.652;8.516;2022-09-21T06:05:19;20.95;;;19.55;;
37877;SDS011;23715;53.652;8.516;2022-09-21T06:10:20;21.50;;;19.77;;
37877;SDS011;23715;53.652;8.516;2022-09-21T06:15:22;22.80;;;21.30;;
37877;SDS011;23715;53.652;8.516;2022-09-21T06:20:22;24.52;;;22.85;;
37877;SDS011;23715;53.652;8.516;2022-09-21T06:25:23;23.05;;;21.55;;
37877;SDS011;23715;53.652;8.516;2022-09-21T06:30:23;24.25;;;22.62;;
37877;SDS011;23715;53.652;8.516;2022-09-21T06:35:24;25.85;;;24.07;;
37877;SDS011;23715;53.652;8.516;2022-09-21T06:40:25;25.08;;;23.65;;
37877;SDS011;23715;53.652;8.516;2022-09-21T06:45:27;25.50;;;23.95;;
37877;SDS011;23715;53.652;8.516;2022-09-21T06:50:34;25.48;;;23.80;;
37877;SDS011;23715;53.652;8.516;2022-09-21T06:55:31;25.70;;;24.00;;
37877;SDS011;23715;53.652;8.516;2022-09-21T07:00:31;26.35;;;24.27;;
37877;SDS011;23715;53.652;8.516;2022-09-21T07:05:32;27.65;;;25.80;;
37877;SDS011;23715;53.652;8.516;2022-09-21T07:10:32;29.32;;;27.17;;
37877;SDS011;23715;53.652;8.516;2022-09-21T07:15:33;30.88;;;28.77;;
37877;SDS011;23715;53.652;8.516;2022-09-21T07:20:34;35.77;;;32.60;;
37877;SDS011;23715;53.652;8.516;2022-09-21T07:30:35;29.57;;;27.52;;
37877;SDS011;23715;53.652;8.516;2022-09-21T07:35:36;29.85;;;27.95;;
37877;SDS011;23715;53.652;8.516;2022-09-21T07:40:36;30.23;;;28.17;;
37877;SDS011;23715;53.652;8.516;2022-09-21T07:45:37;29.72;;;27.80;;
37877;SDS011;23715;53.652;8.516;2022-09-21T07:55:37;30.92;;;28.75;;
37877;SDS011;23715;53.652;8.516;2022-09-21T08:00:38;30.37;;;27.95;;
37877;SDS011;23715;53.652;8.516;2022-09-21T08:05:38;30.70;;;28.47;;
37877;SDS011;23715;53.652;8.516;2022-09-21T08:10:39;29.87;;;27.40;;
37877;SDS011;23715;53.652;8.516;2022-09-21T08:15:39;30.70;;;28.50;;
37877;SDS011;23715;53.652;8.516;2022-09-21T08:20:40;30.55;;;28.42;;
37877;SDS011;23715;53.652;8.516;2022-09-21T08:25:41;30.77;;;27.83;;
37877;SDS011;23715;53.652;8.516;2022-09-21T08:30:41;30.95;;;28.50;;
37877;SDS011;23715;53.652;8.516;2022-09-21T08:35:42;29.32;;;27.05;;
37877;SDS011;23715;53.652;8.516;2022-09-21T08:40:44;29.80;;;27.67;;
37877;SDS011;23715;53.652;8.516;2022-09-21T08:45:45;28.77;;;26.70;;
37877;SDS011;23715;53.652;8.516;2022-09-21T08:50:49;29.65;;;27.45;;
37877;SDS011;23715;53.652;8.516;2022-09-21T08:55:54;28.75;;;26.48;;
37877;SDS011;23715;53.652;8.516;2022-09-21T09:01:05;28.75;;;26.40;;
37877;SDS011;23715;53.652;8.516;2022-09-21T09:06:10;28.90;;;26.52;;
37877;SDS011;23715;53.652;8.516;2022-09-21T09:16:51;27.30;;;25.23;;
37877;SDS011;23715;53.652;8.516;2022-09-21T09:21:54;25.68;;;23.92;;
37877;SDS011;23715;53.652;8.516;2022-09-21T09:32:04;25.17;;;23.27;;
37877;SDS011;23715;53.652;8.516;2022-09-21T09:37:14;24.90;;;22.67;;
37877;SDS011;23715;53.652;8.516;2022-09-21T09:42:23;23.55;;;21.90;;
37877;SDS011;23715;53.652;8.516;2022-09-21T09:52:34;23.57;;;21.90;;
37877;SDS011;23715;53.652;8.516;2022-09-21T09:57:35;23.50;;;21.90;;
37877;SDS011;23715;53.652;8.516;2022-09-21T10:07:52;22.37;;;20.67;;
37877;SDS011;23715;53.652;8.516;2022-09-21T10:12:53;23.45;;;21.65;;
37877;SDS011;23715;53.652;8.516;2022-09-21T10:23:19;23.87;;;22.00;;
37877;SDS011;23715;53.652;8.516;2022-09-21T10:28:20;23.20;;;21.55;;
37877;SDS011;23715;53.652;8.516;2022-09-21T10:33:22;22.80;;;21.10;;
37877;SDS011;23715;53.652;8.516;2022-09-21T10:38:24;23.87;;;22.10;;
37877;SDS011;23715;53.652;8.516;2022-09-21T10:43:34;22.58;;;20.88;;
37877;SDS011;23715;53.652;8.516;2022-09-21T10:48:37;22.10;;;20.57;;
37877;SDS011;23715;53.652;8.516;2022-09-21T10:53:38;23.45;;;21.60;;
37877;SDS011;23715;53.652;8.516;2022-09-21T10:58:40;22.65;;;20.77;;
37877;SDS011;23715;53.652;8.516;2022-09-21T11:04:01;24.92;;;22.77;;
37877;SDS011;23715;53.652;8.516;2022-09-21T11:09:07;23.67;;;21.90;;
37877;SDS011;23715;53.652;8.516;2022-09-21T11:30:16;23.25;;;21.40;;
37877;SDS011;23715;53.652;8.516;2022-09-21T11:45:57;23.22;;;21.62;;
37877;SDS011;23715;53.652;8.516;2022-09-21T11:51:20;22.13;;;20.27;;
37877;SDS011;23715;53.652;8.516;2022-09-21T12:01:47;18.87;;;17.32;;
37877;SDS011;23715;53.652;8.516;2022-09-21T12:07:15;13.43;;;12.37;;
37877;SDS011;23715;53.652;8.516;2022-09-21T12:27:28;11.30;;;10.13;;
37877;SDS011;23715;53.652;8.516;2022-09-21T12:32:45;11.28;;;10.55;;
37877;SDS011;23715;53.652;8.516;2022-09-21T12:37:56;15.83;;;10.93;;
37877;SDS011;23715;53.652;8.516;2022-09-21T12:43:02;14.23;;;9.30;;
37877;SDS011;23715;53.652;8.516;2022-09-21T12:53:35;9.80;;;9.05;;
37877;SDS011;23715;53.652;8.516;2022-09-21T12:58:46;24.95;;;12.03;;
37877;SDS011;23715;53.652;8.516;2022-09-21T13:09:27;9.98;;;9.20;;
37877;SDS011;23715;53.652;8.516;2022-09-21T13:14:30;13.55;;;11.40;;
37877;SDS011;23715;53.652;8.516;2022-09-21T13:19:33;12.73;;;11.00;;
37877;SDS011;23715;53.652;8.516;2022-09-21T13:24:34;8.80;;;8.20;;
37877;SDS011;23715;53.652;8.516;2022-09-21T13:34:37;9.83;;;8.63;;
37877;SDS011;23715;53.652;8.516;2022-09-21T13:50:22;11.65;;;10.53;;
37877;SDS011;23715;53.652;8.516;2022-09-21T13:55:40;16.70;;;11.45;;
37877;SDS011;23715;53.652;8.516;2022-09-21T14:00:50;11.25;;;10.35;;
37877;SDS011;23715;53.652;8.516;2022-09-21T14:05:59;11.18;;;10.35;;
37877;SDS011;23715;53.652;8.516;2022-09-21T14:21:31;12.53;;;11.43;;
37877;SDS011;23715;53.652;8.516;2022-09-21T14:31:39;12.93;;;11.30;;
37877;SDS011;23715;53.652;8.516;2022-09-21T14:36:44;11.20;;;10.30;;
37877;SDS011;23715;53.652;8.516;2022-09-21T14:41:48;12.97;;;11.10;;
37877;SDS011;23715;53.652;8.516;2022-09-21T14:52:18;12.03;;;10.95;;
37877;SDS011;23715;53.652;8.516;2022-09-21T14:57:26;12.82;;;11.53;;
37877;SDS011;23715;53.652;8.516;2022-09-21T15:02:42;12.20;;;11.08;;
37877;SDS011;23715;53.652;8.516;2022-09-21T15:18:59;12.25;;;11.15;;
37877;SDS011;23715;53.652;8.516;2022-09-21T15:29:02;13.03;;;11.23;;
37877;SDS011;23715;53.652;8.516;2022-09-21T15:34:06;11.25;;;10.38;;
37877;SDS011;23715;53.652;8.516;2022-09-21T15:39:23;11.73;;;10.75;;
37877;SDS011;23715;53.652;8.516;2022-09-21T15:44:31;11.88;;;10.70;;
37877;SDS011;23715;53.652;8.516;2022-09-21T15:49:34;11.73;;;10.58;;
37877;SDS011;23715;53.652;8.516;2022-09-21T15:54:42;11.80;;;10.63;;
37877;SDS011;23715;53.652;8.516;2022-09-21T15:59:49;11.22;;;10.23;;
37877;SDS011;23715;53.652;8.516;2022-09-21T16:04:50;10.73;;;9.70;;
37877;SDS011;23715;53.652;8.516;2022-09-21T16:09:51;11.97;;;11.08;;
37877;SDS011;23715;53.652;8.516;2022-09-21T16:14:52;11.25;;;10.15;;
37877;SDS011;23715;53.652;8.516;2022-09-21T16:24:57;10.65;;;9.28;;
37877;SDS011;23715;53.652;8.516;2022-09-21T16:29:59;10.18;;;9.48;;
37877;SDS011;23715;53.652;8.516;2022-09-21T16:40:28;9.25;;;8.65;;
37877;SDS011;23715;53.652;8.516;2022-09-21T16:50:31;9.60;;;6.37;;
37877;SDS011;23715;53.652;8.516;2022-09-21T16:55:32;6.87;;;5.22;;
37877;SDS011;23715;53.652;8.516;2022-09-21T17:00:35;7.62;;;5.80;;
37877;SDS011;23715;53.652;8.516;2022-09-21T17:05:36;8.00;;;7.20;;
37877;SDS011;23715;53.652;8.516;2022-09-21T17:10:42;8.75;;;8.03;;
37877;SDS011;23715;53.652;8.516;2022-09-21T17:15:44;9.48;;;8.78;;
37877;SDS011;23715;53.652;8.516;2022-09-21T17:20:46;9.78;;;8.90;;
37877;SDS011;23715;53.652;8.516;2022-09-21T17:25:46;8.65;;;8.15;;
37877;SDS011;23715;53.652;8.516;2022-09-21T17:30:47;10.30;;;9.38;;
37877;SDS011;23715;53.652;8.516;2022-09-21T17:35:48;10.90;;;9.48;;
37877;SDS011;23715;53.652;8.516;2022-09-21T17:40:48;10.20;;;9.20;;
37877;SDS011;23715;53.652;8.516;2022-09-21T17:45:58;9.53;;;8.88;;
37877;SDS011;23715;53.652;8.516;2022-09-21T17:51:06;10.70;;;9.68;;
37877;SDS011;23715;53.652;8.516;2022-09-21T18:01:30;10.08;;;9.28;;
37877;SDS011;23715;53.652;8.516;2022-09-21T18:06:33;11.88;;;10.00;;
37877;SDS011;23715;53.652;8.516;2022-09-21T18:16:54;12.35;;;9.65;;
37877;SDS011;23715;53.652;8.516;2022-09-21T18:27:40;13.60;;;12.50;;
37877;SDS011;23715;53.652;8.516;2022-09-21T18:32:58;12.25;;;11.22;;
37877;SDS011;23715;53.652;8.516;2022-09-21T18:43:26;11.90;;;10.90;;
37877;SDS011;23715;53.652;8.516;2022-09-21T18:54:17;12.60;;;11.70;;
37877;SDS011;23715;53.652;8.516;2022-09-21T18:59:20;12.75;;;11.65;;
37877;SDS011;23715;53.652;8.516;2022-09-21T19:04:21;11.48;;;10.32;;
37877;SDS011;23715;53.652;8.516;2022-09-21T19:15:13;11.43;;;10.50;;
37877;SDS011;23715;53.652;8.516;2022-09-21T19:25:35;11.33;;;10.48;;
37877;SDS011;23715;53.652;8.516;2022-09-21T19:30:48;11.73;;;10.63;;
37877;SDS011;23715;53.652;8.516;2022-09-21T19:35:51;11.75;;;10.88;;
37877;SDS011;23715;53.652;8.516;2022-09-21T19:40:51;12.58;;;10.55;;
37877;SDS011;23715;53.652;8.516;2022-09-21T19:56:31;11.78;;;10.60;;
37877;SDS011;23715;53.652;8.516;2022-09-21T20:01:53;10.90;;;10.20;;
37877;SDS011;23715;53.652;8.516;2022-09-21T20:06:56;12.03;;;11.05;;
37877;SDS011;23715;53.652;8.516;2022-09-21T20:17:11;17.53;;;16.00;;
37877;SDS011;23715;53.652;8.516;2022-09-21T20:22:15;18.07;;;16.45;;
37877;SDS011;23715;53.652;8.516;2022-09-21T20:27:22;27.48;;;24.55;;
37877;SDS011;23715;53.652;8.516;2022-09-21T20:32:40;21.37;;;19.48;;
37877;SDS011;23715;53.652;8.516;2022-09-21T20:37:38;17.00;;;15.48;;
37877;SDS011;23715;53.652;8.516;2022-09-21T20:42:40;15.25;;;14.15;;
37877;SDS011;23715;53.652;8.516;2022-09-21T20:47:42;14.85;;;13.83;;
37877;SDS011;23715;53.652;8.516;2022-09-21T20:52:43;14.58;;;13.13;;
37877;SDS011;23715;53.652;8.516;2022-09-21T21:02:43;15.03;;;13.60;;
37877;SDS011;23715;53.652;8.516;2022-09-21T21:07:43;13.50;;;12.70;;
37877;SDS011;23715;53.652;8.516;2022-09-21T21:12:43;14.58;;;13.28;;
37877;SDS011;23715;53.652;8.516;2022-09-21T21:17:45;14.53;;;13.10;;
37877;SDS011;23715;53.652;8.516;2022-09-21T21:22:50;15.70;;;14.33;;
37877;SDS011;23715;53.652;8.516;2022-09-21T21:27:54;13.78;;;12.70;;
37877;SDS011;23715;53.652;8.516;2022-09-21T21:32:56;14.15;;;13.15;;
37877;SDS011;23715;53.652;8.516;2022-09-21T21:37:57;13.38;;;12.58;;
37877;SDS011;23715;53.652;8.516;2022-09-21T21:42:58;13.83;;;12.82;;
37877;SDS011;23715;53.652;8.516;2022-09-21T21:48:00;14.05;;;12.65;;
37877;SDS011;23715;53.652;8.516;2022-09-21T21:58:00;15.00;;;13.75;;
37877;SDS011;23715;53.652;8.516;2022-09-21T22:03:01;15.08;;;13.88;;
37877;SDS011;23715;53.652;8.516;2022-09-21T22:08:02;13.62;;;12.63;;
37877;SDS011;23715;53.652;8.516;2022-09-21T22:13:04;15.07;;;13.83;;
37877;SDS011;23715;53.652;8.516;2022-09-21T22:18:05;15.23;;;14.13;;
37877;SDS011;23715;53.652;8.516;2022-09-21T22:23:05;15.93;;;14.78;;
37877;SDS011;23715;53.652;8.516;2022-09-21T22:28:06;16.45;;;15.25;;
37877;SDS011;23715;53.652;8.516;2022-09-21T22:33:06;15.68;;;14.55;;
37877;SDS011;23715;53.652;8.516;2022-09-21T22:38:07;17.12;;;15.72;;
37877;SDS011;23715;53.652;8.516;2022-09-21T22:43:09;15.70;;;14.53;;
37877;SDS011;23715;53.652;8.516;2022-09-21T22:48:10;17.33;;;15.70;;
37877;SDS011;23715;53.652;8.516;2022-09-21T22:53:10;16.77;;;15.35;;
37877;SDS011;23715;53.652;8.516;2022-09-21T22:58:10;18.60;;;17.15;;
37877;SDS011;23715;53.652;8.516;2022-09-21T23:03:11;17.48;;;15.90;;
37877;SDS011;23715;53.652;8.516;2022-09-21T23:08:12;17.00;;;15.50;;
37877;SDS011;23715;53.652;8.516;2022-09-21T23:13:12;17.37;;;15.93;;
37877;SDS011;23715;53.652;8.516;2022-09-21T23:18:13;16.65;;;15.45;;
37877;SDS011;23715;53.652;8.516;2022-09-21T23:23:14;17.98;;;16.42;;
37877;SDS011;23715;53.652;8.516;2022-09-21T23:28:15;17.35;;;15.78;;
37877;SDS011;23715;53.652;8.516;2022-09-21T23:33:15;17.82;;;16.37;;
37877;SDS011;23715;53.652;8.516;2022-09-21T23:38:16;17.07;;;15.88;;
37877;SDS011;23715;53.652;8.516;2022-09-21T23:43:17;18.23;;;16.63;;
37877;SDS011;23715;53.652;8.516;2022-09-21T23:48:17;18.85;;;17.67;;
37877;SDS011;23715;53.652;8.516;2022-09-21T23:53:18;20.25;;;18.45;;
